CYHD

Dryden Regional Airport

Dryden, Ontario, Canada
METAR CYHD 211500Z AUTO 00000KT 9SM CLR 10/M01 A3035 RMK SLP292
Observed Flight Rules
Apr-21 @ 15:00 UTC (39 minutes ago) Visual Flight Rules
Visibility Clouds
9 miles
  • Clear skies
Temperatures Readings
Current 10°C / 50°F
Dewpoint -1°C / 30°F
Humidity 47%
Altimeter 30.35" Hg
Pressure 1029.2 hPa
Elevation 413
METAR CYHD 211500Z AUTO 00000KT 9SM CLR 10/M01 A3035 RMK SLP292
Observed Flight Rules
Apr-21 @ 15:00 UTC
(39 minutes ago)
VFR
Clouds
  • Clear skies
Temperature Dewpoint
10°C / 50°F -1°C / 30°F
Humidity Altimeter Pressure
47% 30.35" Hg 1029.2 hPa